»·PEaware :: N888MD KAVL-KEYW

N888MD :: KAVL-KEYW

FLIGHT INFORMATION

Flight Status: Arrived
Operator: Privately registered:
United States
More flights under this callsign
Pilot: Drew L. (13237)
Aircraft: MCDONNELL-DOUGLAS MD-83
(MD83)
More flights by this aircraft type
Origin: KAVL Asheville Regl
United States
Destination: KEYW Key West Intl
United States
More flights between these airports :: More routes between these airports
Route: SUG IRQ LAL MARCI
File this flight plan on PilotEdge
Remarks:
Altitude:
(Current/Filed)
34,000ft
Speed:
(Current/Filed)
300kts
Departed: 30-Sep-20 09:15 PM
Arrived: 30-Sep-20 10:57 PM
Distance/Time
Traveled:
654nm/1:42
Distance/Time
To Go:
Arrived

Flight Plot

Page will automatically refresh every two minutes.

Flight plan parsing failed; only flown route is shown


Map Options




Map Legend


Flown Route
Filed Route
Departure Airport
Arrival Airport
Navaid (VOR, NDB)
Fix

Horizontal Profiles

Position Reports

Time Latitude Longitude Heading Altitude Ground
Speed
30-Sep-20 21:02 35.443173 -82.541421 246 2156ft 0kts
30-Sep-20 21:03 35.443173 -82.541421 246 2156ft 0kts
30-Sep-20 21:04 35.443173 -82.541421 246 2156ft 0kts
30-Sep-20 21:05 35.443173 -82.541421 246 2156ft 0kts
30-Sep-20 21:06 35.443173 -82.541421 246 2156ft 0kts
30-Sep-20 21:07 35.443173 -82.541421 246 2156ft 0kts
30-Sep-20 21:08 35.443173 -82.541421 246 2156ft 0kts
30-Sep-20 21:09 35.443030 -82.541825 246 2155ft 11kts
30-Sep-20 21:10 35.442621 -82.543579 295 2151ft 4kts
30-Sep-20 21:12 35.442606 -82.546376 332 2149ft 5kts
30-Sep-20 21:13 35.443071 -82.546573 157 2149ft 0kts
30-Sep-20 21:14 35.443071 -82.546573 157 2149ft 0kts
30-Sep-20 21:15 35.422875 -82.537648 159 2710ft 166kts
30-Sep-20 21:16 35.385649 -82.486630 121 5386ft 254kts
30-Sep-20 21:17 35.320640 -82.447249 177 9289ft 298kts
30-Sep-20 21:18 35.236035 -82.434294 177 13420ft 316kts
30-Sep-20 21:19 35.146590 -82.418649 177 17071ft 331kts
30-Sep-20 21:20 35.053663 -82.402121 178 20290ft 343kts
30-Sep-20 21:21 34.956635 -82.384892 177 23031ft 357kts
30-Sep-20 21:22 34.855974 -82.366934 175 25435ft 371kts
30-Sep-20 21:23 34.752182 -82.348395 177 27654ft 380kts
30-Sep-20 21:24 34.646093 -82.329477 177 29603ft 388kts
30-Sep-20 21:25 34.537243 -82.310075 177 31325ft 396kts
30-Sep-20 21:26 34.426260 -82.290289 177 32860ft 404kts
30-Sep-20 21:27 34.314066 -82.270276 177 33946ft 404kts
30-Sep-20 21:28 34.201881 -82.250287 177 33970ft 408kts
30-Sep-20 21:29 34.089191 -82.230187 177 33970ft 409kts
30-Sep-20 21:30 33.976299 -82.210053 177 33968ft 409kts
30-Sep-20 21:30 33.882493 -82.193325 177 33972ft 409kts
30-Sep-20 21:32 33.751042 -82.169879 177 33981ft 410kts
30-Sep-20 21:32 33.657115 -82.160067 185 33982ft 404kts
30-Sep-20 21:33 33.544983 -82.157717 184 33981ft 403kts
30-Sep-20 21:35 33.413878 -82.154373 184 33978ft 404kts
30-Sep-20 21:35 33.320586 -82.151961 184 33975ft 404kts
30-Sep-20 21:36 33.207849 -82.149058 184 33971ft 403kts
30-Sep-20 21:37 33.095700 -82.146183 184 33970ft 404kts
30-Sep-20 21:38 32.983583 -82.143329 182 33977ft 405kts
30-Sep-20 21:39 32.870536 -82.140363 182 33995ft 406kts
30-Sep-20 21:40 32.757832 -82.137450 181 34007ft 406kts
30-Sep-20 21:41 32.644962 -82.134535 182 34002ft 406kts
30-Sep-20 21:42 32.532214 -82.131624 182 34000ft 406kts
30-Sep-20 21:43 32.419549 -82.128715 182 34000ft 406kts
30-Sep-20 21:44 32.306748 -82.125806 182 33998ft 406kts
30-Sep-20 21:45 32.194104 -82.122894 181 33998ft 406kts
30-Sep-20 21:46 32.081423 -82.119988 181 33997ft 406kts
30-Sep-20 21:47 31.968693 -82.117075 181 33997ft 406kts
30-Sep-20 21:48 31.855941 -82.114159 181 34001ft 406kts
30-Sep-20 21:49 31.743024 -82.111245 181 34005ft 406kts
30-Sep-20 21:50 31.630310 -82.108329 182 34008ft 406kts
30-Sep-20 21:51 31.517734 -82.105419 181 34008ft 406kts
30-Sep-20 21:52 31.405241 -82.102513 181 34008ft 406kts
30-Sep-20 21:53 31.292602 -82.099601 182 34007ft 406kts
30-Sep-20 21:54 31.179678 -82.096683 181 34007ft 406kts
30-Sep-20 21:55 31.066874 -82.093764 181 34007ft 406kts
30-Sep-20 21:56 30.954890 -82.090825 183 34008ft 405kts
30-Sep-20 21:57 30.838987 -82.087870 184 34011ft 422kts
30-Sep-20 21:58 30.721664 -82.084849 184 33993ft 424kts
30-Sep-20 21:59 30.603753 -82.081801 184 34008ft 424kts
30-Sep-20 22:00 30.486032 -82.078752 184 34005ft 424kts
30-Sep-20 22:01 30.368395 -82.075712 183 33999ft 424kts
30-Sep-20 22:02 30.250873 -82.072669 184 33997ft 424kts
30-Sep-20 22:03 30.133525 -82.069632 184 33995ft 424kts
30-Sep-20 22:04 30.015875 -82.066591 184 34001ft 423kts
30-Sep-20 22:05 29.898228 -82.063549 183 34012ft 423kts
30-Sep-20 22:06 29.780257 -82.060490 183 34019ft 424kts
30-Sep-20 22:07 29.662679 -82.057454 183 34020ft 424kts
30-Sep-20 22:08 29.544774 -82.054395 183 34012ft 424kts
30-Sep-20 22:09 29.427391 -82.051360 183 33999ft 424kts
30-Sep-20 22:10 29.309859 -82.048317 184 33998ft 424kts
30-Sep-20 22:11 29.192113 -82.045268 183 33997ft 424kts
30-Sep-20 22:12 29.074177 -82.042218 183 33995ft 425kts
30-Sep-20 22:13 28.955767 -82.039163 183 33994ft 428kts
30-Sep-20 22:14 28.837148 -82.036080 183 33994ft 428kts
30-Sep-20 22:15 28.718150 -82.032987 184 33992ft 430kts
30-Sep-20 22:16 28.599028 -82.029912 184 33990ft 430kts
30-Sep-20 22:17 28.479286 -82.026814 184 33990ft 430kts
30-Sep-20 22:18 28.359929 -82.023720 184 33988ft 430kts
30-Sep-20 22:19 28.240182 -82.020621 184 33986ft 430kts
30-Sep-20 22:20 28.120839 -82.017534 184 33985ft 429kts
30-Sep-20 22:21 28.001184 -82.014434 183 33981ft 430kts
30-Sep-20 22:22 27.880888 -82.002294 179 33983ft 433kts
30-Sep-20 22:23 27.760612 -81.989031 180 33982ft 433kts
30-Sep-20 22:24 27.640784 -81.975892 180 33979ft 434kts
30-Sep-20 22:25 27.521027 -81.962760 180 33977ft 433kts
30-Sep-20 22:26 27.400914 -81.949592 179 33962ft 434kts
30-Sep-20 22:27 27.281145 -81.936458 179 33953ft 434kts
30-Sep-20 22:28 27.161414 -81.923328 179 33952ft 433kts
30-Sep-20 22:29 27.041400 -81.910167 179 33952ft 433kts
30-Sep-20 22:30 26.920456 -81.896964 177 33953ft 440kts
30-Sep-20 22:31 26.797267 -81.883404 177 33946ft 444kts
30-Sep-20 22:32 26.674719 -81.869953 177 33931ft 443kts
30-Sep-20 22:33 26.552225 -81.856516 177 33928ft 443kts
30-Sep-20 22:34 26.429680 -81.843073 177 33927ft 443kts
30-Sep-20 22:35 26.307352 -81.829655 177 33922ft 443kts
30-Sep-20 22:36 26.184664 -81.816193 177 33918ft 443kts
30-Sep-20 22:37 26.062325 -81.802776 177 33919ft 443kts
30-Sep-20 22:38 25.939949 -81.789349 177 33924ft 443kts
30-Sep-20 22:39 25.817557 -81.775716 176 33928ft 443kts
30-Sep-20 22:40 25.695049 -81.761963 176 33928ft 443kts
30-Sep-20 22:41 25.572490 -81.748238 177 33928ft 443kts
30-Sep-20 22:42 25.450198 -81.734609 176 33928ft 443kts
30-Sep-20 22:43 25.328803 -81.721144 176 32177ft 418kts
30-Sep-20 22:44 25.220830 -81.709343 176 28575ft 369kts
30-Sep-20 22:45 25.122295 -81.699133 177 24598ft 348kts
30-Sep-20 22:46 25.028444 -81.690406 176 20583ft 336kts
30-Sep-20 22:47 24.937250 -81.684326 177 16611ft 327kts
30-Sep-20 22:48 24.848718 -81.679423 177 12617ft 315kts
30-Sep-20 22:49 24.764544 -81.685517 199 8628ft 303kts
30-Sep-20 22:50 24.686013 -81.711516 194 4675ft 293kts
30-Sep-20 22:51 24.612185 -81.733520 194 1980ft 250kts
30-Sep-20 22:52 24.564172 -81.765918 267 1471ft 174kts
30-Sep-20 22:53 24.578269 -81.809994 260 1126ft 158kts
30-Sep-20 22:54 24.554817 -81.800069 81 836ft 160kts
30-Sep-20 22:55 24.556149 -81.756531 88 7ft 64kts
30-Sep-20 22:56 24.555081 -81.753106 237 6ft 3kts

Navigation Log

Ident Type
Flight plan parsing failed, navigation log unavailable